createdAt,value
2022-12-31T00:09:25.772Z,1.12
2022-12-31T00:19:32.327Z,0.94
2022-12-31T00:29:38.613Z,1.36
2022-12-31T00:39:44.940Z,1.19
2022-12-31T00:49:51.273Z,1.12
2022-12-31T00:59:57.669Z,1.13
2022-12-31T01:10:04.200Z,1.32
2022-12-31T01:20:10.744Z,1.25
2022-12-31T01:30:17.027Z,1.71
2022-12-31T01:40:23.321Z,3.00
2022-12-31T01:50:32.535Z,3.44
2022-12-31T02:00:39.096Z,5.00
2022-12-31T02:10:45.412Z,5.55
2022-12-31T02:20:57.603Z,5.76
2022-12-31T02:31:16.026Z,6.11
2022-12-31T02:41:41.029Z,6.38
2022-12-31T02:51:54.621Z,7.08
2022-12-31T03:02:15.089Z,7.39
2022-12-31T03:12:42.942Z,6.38
2022-12-31T03:22:49.251Z,7.23
2022-12-31T03:32:57.445Z,6.94
2022-12-31T03:43:03.747Z,7.39
2022-12-31T03:53:10.128Z,7.48
2022-12-31T04:03:16.587Z,7.58
2022-12-31T04:13:22.933Z,7.33
2022-12-31T04:23:29.481Z,7.33
2022-12-31T04:33:35.796Z,7.21
2022-12-31T04:43:42.482Z,7.45
2022-12-31T04:53:49.049Z,7.62
2022-12-31T05:03:55.442Z,7.78
2022-12-31T05:14:01.720Z,7.87
2022-12-31T05:24:08.505Z,7.90
2022-12-31T05:34:14.837Z,7.95
2022-12-31T05:44:21.111Z,8.17
2022-12-31T05:54:27.472Z,8.15
2022-12-31T06:04:33.842Z,8.12
2022-12-31T06:14:45.431Z,8.57
2022-12-31T06:24:52.176Z,8.47
2022-12-31T06:34:58.796Z,8.79
2022-12-31T06:45:05.516Z,8.72
2022-12-31T06:55:12.408Z,8.63
2022-12-31T07:05:27.862Z,8.78
2022-12-31T07:15:58.839Z,8.70
2022-12-31T07:26:14.622Z,8.77
2022-12-31T07:36:32.414Z,8.84
2022-12-31T07:46:57.723Z,9.00
2022-12-31T07:57:04.257Z,9.34
2022-12-31T08:07:24.570Z,10.00
2022-12-31T08:17:31.095Z,10.60
2022-12-31T08:27:40.461Z,11.04
2022-12-31T08:38:01.768Z,11.17
2022-12-31T08:48:37.422Z,11.10
2022-12-31T08:59:01.514Z,10.83
2022-12-31T09:09:30.464Z,11.36
2022-12-31T09:19:36.798Z,11.52
2022-12-31T09:29:45.754Z,11.63
2022-12-31T09:39:52.307Z,11.50
2022-12-31T09:50:04.712Z,12.40
2022-12-31T10:00:16.847Z,12.13
2022-12-31T10:10:39.082Z,12.12
2022-12-31T10:21:00.530Z,12.50
2022-12-31T10:31:15.940Z,12.75
2022-12-31T10:41:31.248Z,13.13
2022-12-31T10:51:59.370Z,13.11
2022-12-31T11:02:17.994Z,13.56
2022-12-31T11:12:42.943Z,13.53
2022-12-31T11:23:05.427Z,13.59
2022-12-31T11:33:33.401Z,14.02
2022-12-31T11:44:13.259Z,14.08
2022-12-31T11:54:22.353Z,14.39
2022-12-31T12:04:29.390Z,14.71
2022-12-31T12:14:41.831Z,14.47
2022-12-31T12:25:09.071Z,13.99
2022-12-31T12:35:17.606Z,13.93
2022-12-31T12:45:50.731Z,13.70
2022-12-31T12:56:23.926Z,13.73
2022-12-31T13:06:47.526Z,13.57
2022-12-31T13:16:56.718Z,13.73
2022-12-31T13:27:20.620Z,13.59
2022-12-31T13:37:35.205Z,13.53
2022-12-31T13:47:50.911Z,13.48
2022-12-31T13:58:06.419Z,13.51
2022-12-31T14:08:12.774Z,13.48
2022-12-31T14:18:24.450Z,13.41
2022-12-31T14:28:51.063Z,13.09
2022-12-31T14:39:19.575Z,12.94
2022-12-31T14:49:44.377Z,13.01
2022-12-31T14:59:56.909Z,12.71
2022-12-31T15:10:15.172Z,12.72
2022-12-31T15:20:30.515Z,12.66
2022-12-31T15:30:41.363Z,12.65
2022-12-31T15:40:50.772Z,12.50
2022-12-31T15:51:00.238Z,12.40
2022-12-31T16:01:21.039Z,12.46
2022-12-31T16:11:31.193Z,12.49
2022-12-31T16:21:39.124Z,12.55
2022-12-31T16:31:47.008Z,12.57
2022-12-31T16:41:54.073Z,12.72
2022-12-31T16:52:05.021Z,12.72
2022-12-31T17:02:17.712Z,12.69
2022-12-31T17:12:26.455Z,12.83
2022-12-31T17:22:37.250Z,12.92
2022-12-31T17:32:46.061Z,12.76
2022-12-31T17:42:52.376Z,12.74
2022-12-31T17:53:01.896Z,12.78
2022-12-31T18:03:08.283Z,12.88
2022-12-31T18:13:24.106Z,13.13
2022-12-31T18:23:34.324Z,13.13
2022-12-31T18:33:40.611Z,13.10
2022-12-31T18:43:47.546Z,13.23
2022-12-31T18:53:53.834Z,13.15
2022-12-31T19:04:04.956Z,13.17
2022-12-31T19:14:23.370Z,13.12
2022-12-31T19:24:29.352Z,13.25
2022-12-31T19:34:35.690Z,13.35
2022-12-31T19:44:42.040Z,13.38
2022-12-31T19:54:48.781Z,13.39
2022-12-31T20:04:55.105Z,13.37
2022-12-31T20:15:01.445Z,13.11
2022-12-31T20:25:08.073Z,13.07
2022-12-31T20:35:14.382Z,12.92
2022-12-31T20:45:20.663Z,12.79
2022-12-31T20:55:26.935Z,12.60
2022-12-31T21:05:33.473Z,12.42
2022-12-31T21:15:39.990Z,12.27
2022-12-31T21:25:47.171Z,12.00
2022-12-31T21:35:54.291Z,11.93
2022-12-31T21:46:07.237Z,12.05
2022-12-31T21:56:15.692Z,11.89
2022-12-31T22:06:23.355Z,11.80
2022-12-31T22:16:29.706Z,11.71
2022-12-31T22:26:36.887Z,11.71
2022-12-31T22:36:45.663Z,11.76
2022-12-31T22:46:52.037Z,11.89
2022-12-31T22:56:58.427Z,11.86
2022-12-31T23:07:04.825Z,11.77
2022-12-31T23:17:44.579Z,11.87
2022-12-31T23:27:50.904Z,11.99
2022-12-31T23:37:57.201Z,12.01
2022-12-31T23:48:03.708Z,12.26
2022-12-31T23:58:10.072Z,12.35
